sensor_id;sensor_type;location;lat;lon;timestamp;temperature;humidity
74869;DHT22;63419;42.262;12.210;2023-04-25T00:00:15;8.90;99.90
74869;DHT22;63419;42.262;12.210;2023-04-25T00:02:42;9.20;99.90
74869;DHT22;63419;42.262;12.210;2023-04-25T00:05:09;9.30;99.90
74869;DHT22;63419;42.262;12.210;2023-04-25T00:07:37;9.50;99.90
74869;DHT22;63419;42.262;12.210;2023-04-25T00:10:05;9.50;99.90
74869;DHT22;63419;42.262;12.210;2023-04-25T00:12:33;9.50;99.90
74869;DHT22;63419;42.262;12.210;2023-04-25T00:15:00;9.50;99.90
74869;DHT22;63419;42.262;12.210;2023-04-25T00:17:27;9.60;99.90
74869;DHT22;63419;42.262;12.210;2023-04-25T00:19:54;9.50;99.90
74869;DHT22;63419;42.262;12.210;2023-04-25T00:22:21;9.50;99.90
74869;DHT22;63419;42.262;12.210;2023-04-25T00:24:48;9.40;99.90
74869;DHT22;63419;42.262;12.210;2023-04-25T00:27:15;9.40;99.90
74869;DHT22;63419;42.262;12.210;2023-04-25T00:29:42;9.00;99.90
74869;DHT22;63419;42.262;12.210;2023-04-25T00:32:09;9.10;99.90
74869;DHT22;63419;42.262;12.210;2023-04-25T00:34:36;9.50;99.90
74869;DHT22;63419;42.262;12.210;2023-04-25T00:37:03;9.70;99.90
74869;DHT22;63419;42.262;12.210;2023-04-25T00:39:31;10.00;99.90
74869;DHT22;63419;42.262;12.210;2023-04-25T00:41:58;10.10;99.90
74869;DHT22;63419;42.262;12.210;2023-04-25T00:44:27;10.40;99.90
74869;DHT22;63419;42.262;12.210;2023-04-25T00:46:54;10.50;99.90
74869;DHT22;63419;42.262;12.210;2023-04-25T00:49:21;10.60;99.90
74869;DHT22;63419;42.262;12.210;2023-04-25T00:51:48;10.70;99.90
74869;DHT22;63419;42.262;12.210;2023-04-25T00:54:16;10.80;99.90
74869;DHT22;63419;42.262;12.210;2023-04-25T00:56:43;10.90;99.90
74869;DHT22;63419;42.262;12.210;2023-04-25T00:59:12;11.00;99.90
74869;DHT22;63419;42.262;12.210;2023-04-25T01:01:39;11.10;99.90
74869;DHT22;63419;42.262;12.210;2023-04-25T01:04:07;11.30;99.90
74869;DHT22;63419;42.262;12.210;2023-04-25T01:06:34;11.30;99.90
74869;DHT22;63419;42.262;12.210;2023-04-25T01:09:02;11.50;99.90
74869;DHT22;63419;42.262;12.210;2023-04-25T01:11:29;11.60;99.90
74869;DHT22;63419;42.262;12.210;2023-04-25T01:13:56;11.60;99.90
74869;DHT22;63419;42.262;12.210;2023-04-25T01:16:24;11.60;99.90
74869;DHT22;63419;42.262;12.210;2023-04-25T01:18:51;11.60;99.90
74869;DHT22;63419;42.262;12.210;2023-04-25T01:21:18;11.70;99.90
74869;DHT22;63419;42.262;12.210;2023-04-25T01:23:45;11.70;99.90
74869;DHT22;63419;42.262;12.210;2023-04-25T01:26:12;11.70;99.90
74869;DHT22;63419;42.262;12.210;2023-04-25T01:28:39;11.70;99.90
74869;DHT22;63419;42.262;12.210;2023-04-25T01:31:11;11.70;99.90
74869;DHT22;63419;42.262;12.210;2023-04-25T01:33:38;11.80;99.90
74869;DHT22;63419;42.262;12.210;2023-04-25T01:36:06;11.80;99.90
74869;DHT22;63419;42.262;12.210;2023-04-25T01:38:33;11.80;99.90
74869;DHT22;63419;42.262;12.210;2023-04-25T01:41:00;11.70;99.90
74869;DHT22;63419;42.262;12.210;2023-04-25T01:43:27;11.70;99.90
74869;DHT22;63419;42.262;12.210;2023-04-25T01:45:54;11.50;99.90
74869;DHT22;63419;42.262;12.210;2023-04-25T01:48:22;11.50;99.90
74869;DHT22;63419;42.262;12.210;2023-04-25T01:50:49;11.50;99.90
74869;DHT22;63419;42.262;12.210;2023-04-25T01:53:16;11.30;99.90
74869;DHT22;63419;42.262;12.210;2023-04-25T01:55:43;11.30;99.90
74869;DHT22;63419;42.262;12.210;2023-04-25T01:58:10;11.20;99.90
74869;DHT22;63419;42.262;12.210;2023-04-25T02:00:39;11.30;99.90
74869;DHT22;63419;42.262;12.210;2023-04-25T02:03:07;11.30;99.90
74869;DHT22;63419;42.262;12.210;2023-04-25T02:05:37;11.20;99.90
74869;DHT22;63419;42.262;12.210;2023-04-25T02:08:05;11.10;99.90
74869;DHT22;63419;42.262;12.210;2023-04-25T02:10:33;11.10;99.90
74869;DHT22;63419;42.262;12.210;2023-04-25T02:13:00;11.10;99.90
74869;DHT22;63419;42.262;12.210;2023-04-25T02:15:27;11.10;99.90
74869;DHT22;63419;42.262;12.210;2023-04-25T02:17:54;11.00;99.90
74869;DHT22;63419;42.262;12.210;2023-04-25T02:20:23;10.90;99.90
74869;DHT22;63419;42.262;12.210;2023-04-25T02:22:51;11.00;99.90
74869;DHT22;63419;42.262;12.210;2023-04-25T02:25:18;10.90;99.90
74869;DHT22;63419;42.262;12.210;2023-04-25T02:27:47;10.90;99.90
74869;DHT22;63419;42.262;12.210;2023-04-25T02:30:14;10.90;99.90
74869;DHT22;63419;42.262;12.210;2023-04-25T02:32:41;11.00;99.90
74869;DHT22;63419;42.262;12.210;2023-04-25T02:35:09;11.00;99.90
74869;DHT22;63419;42.262;12.210;2023-04-25T02:37:39;11.10;99.90
74869;DHT22;63419;42.262;12.210;2023-04-25T02:40:07;11.00;99.90
74869;DHT22;63419;42.262;12.210;2023-04-25T02:42:35;11.00;99.90
74869;DHT22;63419;42.262;12.210;2023-04-25T02:45:02;11.10;99.90
74869;DHT22;63419;42.262;12.210;2023-04-25T02:47:30;11.10;99.90
74869;DHT22;63419;42.262;12.210;2023-04-25T02:49:57;11.10;99.90
74869;DHT22;63419;42.262;12.210;2023-04-25T02:52:24;11.20;99.90
74869;DHT22;63419;42.262;12.210;2023-04-25T02:54:51;11.30;99.90
74869;DHT22;63419;42.262;12.210;2023-04-25T02:57:18;11.20;99.90
74869;DHT22;63419;42.262;12.210;2023-04-25T02:59:46;11.30;99.90
74869;DHT22;63419;42.262;12.210;2023-04-25T03:02:13;11.20;99.90
74869;DHT22;63419;42.262;12.210;2023-04-25T03:04:40;11.30;99.90
74869;DHT22;63419;42.262;12.210;2023-04-25T03:07:07;11.40;99.90
74869;DHT22;63419;42.262;12.210;2023-04-25T03:09:34;11.50;99.90
74869;DHT22;63419;42.262;12.210;2023-04-25T03:12:01;11.30;99.90
74869;DHT22;63419;42.262;12.210;2023-04-25T03:14:28;11.40;99.90
74869;DHT22;63419;42.262;12.210;2023-04-25T03:16:55;11.50;99.90
74869;DHT22;63419;42.262;12.210;2023-04-25T03:19:22;11.50;99.90
74869;DHT22;63419;42.262;12.210;2023-04-25T03:21:49;11.50;99.90
74869;DHT22;63419;42.262;12.210;2023-04-25T03:24:16;11.60;99.90
74869;DHT22;63419;42.262;12.210;2023-04-25T03:26:43;11.60;99.90
74869;DHT22;63419;42.262;12.210;2023-04-25T03:29:10;11.60;99.90
74869;DHT22;63419;42.262;12.210;2023-04-25T03:31:38;11.60;99.90
74869;DHT22;63419;42.262;12.210;2023-04-25T03:34:05;11.60;99.90
74869;DHT22;63419;42.262;12.210;2023-04-25T03:36:32;11.70;99.90
74869;DHT22;63419;42.262;12.210;2023-04-25T03:38:59;11.60;99.90
74869;DHT22;63419;42.262;12.210;2023-04-25T03:41:26;11.80;99.90
74869;DHT22;63419;42.262;12.210;2023-04-25T03:43:54;11.70;99.90
74869;DHT22;63419;42.262;12.210;2023-04-25T03:46:21;11.80;99.90
74869;DHT22;63419;42.262;12.210;2023-04-25T03:48:48;11.80;99.90
74869;DHT22;63419;42.262;12.210;2023-04-25T03:51:15;11.80;99.90
74869;DHT22;63419;42.262;12.210;2023-04-25T03:53:42;11.80;99.90
74869;DHT22;63419;42.262;12.210;2023-04-25T03:56:09;11.70;99.90
74869;DHT22;63419;42.262;12.210;2023-04-25T03:58:36;11.70;99.90
74869;DHT22;63419;42.262;12.210;2023-04-25T04:01:03;11.70;99.90
74869;DHT22;63419;42.262;12.210;2023-04-25T04:03:34;11.60;99.90
74869;DHT22;63419;42.262;12.210;2023-04-25T04:06:04;11.60;99.90
74869;DHT22;63419;42.262;12.210;2023-04-25T04:08:32;11.60;99.90
74869;DHT22;63419;42.262;12.210;2023-04-25T04:10:59;11.60;99.90
74869;DHT22;63419;42.262;12.210;2023-04-25T04:13:27;11.70;99.90
74869;DHT22;63419;42.262;12.210;2023-04-25T04:15:55;11.70;99.90
74869;DHT22;63419;42.262;12.210;2023-04-25T04:18:22;11.60;99.90
74869;DHT22;63419;42.262;12.210;2023-04-25T04:20:49;11.70;99.90
74869;DHT22;63419;42.262;12.210;2023-04-25T04:23:16;11.70;99.90
74869;DHT22;63419;42.262;12.210;2023-04-25T04:25:43;11.70;99.90
74869;DHT22;63419;42.262;12.210;2023-04-25T04:28:10;11.70;99.90
74869;DHT22;63419;42.262;12.210;2023-04-25T04:30:37;11.60;99.90
74869;DHT22;63419;42.262;12.210;2023-04-25T04:33:05;11.70;99.90
74869;DHT22;63419;42.262;12.210;2023-04-25T04:35:34;11.70;99.90
74869;DHT22;63419;42.262;12.210;2023-04-25T04:38:01;11.70;99.90
74869;DHT22;63419;42.262;12.210;2023-04-25T04:40:28;11.80;99.90
74869;DHT22;63419;42.262;12.210;2023-04-25T04:42:57;11.90;99.90
74869;DHT22;63419;42.262;12.210;2023-04-25T04:45:24;11.70;99.90
74869;DHT22;63419;42.262;12.210;2023-04-25T04:47:51;11.50;99.90
74869;DHT22;63419;42.262;12.210;2023-04-25T04:50:18;11.60;99.90
74869;DHT22;63419;42.262;12.210;2023-04-25T04:52:45;11.60;99.90
74869;DHT22;63419;42.262;12.210;2023-04-25T04:55:12;11.80;99.90
74869;DHT22;63419;42.262;12.210;2023-04-25T04:57:39;11.80;99.90
74869;DHT22;63419;42.262;12.210;2023-04-25T05:00:06;11.80;99.90
74869;DHT22;63419;42.262;12.210;2023-04-25T05:02:38;12.00;99.90
74869;DHT22;63419;42.262;12.210;2023-04-25T05:05:06;12.10;99.90
74869;DHT22;63419;42.262;12.210;2023-04-25T05:07:33;12.20;99.90
74869;DHT22;63419;42.262;12.210;2023-04-25T05:10:01;12.20;99.90
74869;DHT22;63419;42.262;12.210;2023-04-25T05:12:28;12.10;99.90
74869;DHT22;63419;42.262;12.210;2023-04-25T05:14:55;12.20;99.90
74869;DHT22;63419;42.262;12.210;2023-04-25T05:17:22;12.20;99.90
74869;DHT22;63419;42.262;12.210;2023-04-25T05:19:49;12.30;99.90
74869;DHT22;63419;42.262;12.210;2023-04-25T05:22:16;12.40;99.90
74869;DHT22;63419;42.262;12.210;2023-04-25T05:24:43;12.50;99.90
74869;DHT22;63419;42.262;12.210;2023-04-25T05:27:10;12.40;99.90
74869;DHT22;63419;42.262;12.210;2023-04-25T05:29:37;12.50;99.90
74869;DHT22;63419;42.262;12.210;2023-04-25T05:32:05;12.40;99.90
74869;DHT22;63419;42.262;12.210;2023-04-25T05:34:32;12.50;99.90
74869;DHT22;63419;42.262;12.210;2023-04-25T05:36:59;12.70;99.90
74869;DHT22;63419;42.262;12.210;2023-04-25T05:39:27;12.70;99.90
74869;DHT22;63419;42.262;12.210;2023-04-25T05:41:54;12.80;99.90
74869;DHT22;63419;42.262;12.210;2023-04-25T05:44:21;13.00;99.90
74869;DHT22;63419;42.262;12.210;2023-04-25T05:46:48;13.20;99.90
74869;DHT22;63419;42.262;12.210;2023-04-25T05:49:15;13.20;99.90
74869;DHT22;63419;42.262;12.210;2023-04-25T05:51:45;13.20;99.90
74869;DHT22;63419;42.262;12.210;2023-04-25T05:54:12;13.20;99.90
74869;DHT22;63419;42.262;12.210;2023-04-25T05:56:39;13.50;99.90
74869;DHT22;63419;42.262;12.210;2023-04-25T05:59:06;13.60;99.90
74869;DHT22;63419;42.262;12.210;2023-04-25T06:01:33;13.70;99.90
74869;DHT22;63419;42.262;12.210;2023-04-25T06:04:00;13.60;99.90
74869;DHT22;63419;42.262;12.210;2023-04-25T06:06:27;13.60;99.90
74869;DHT22;63419;42.262;12.210;2023-04-25T06:08:54;13.70;99.90
74869;DHT22;63419;42.262;12.210;2023-04-25T06:11:22;13.80;99.90
74869;DHT22;63419;42.262;12.210;2023-04-25T06:13:49;13.70;99.90
74869;DHT22;63419;42.262;12.210;2023-04-25T06:16:16;13.60;99.90
74869;DHT22;63419;42.262;12.210;2023-04-25T06:18:43;13.50;99.90
74869;DHT22;63419;42.262;12.210;2023-04-25T06:21:10;13.20;99.90
74869;DHT22;63419;42.262;12.210;2023-04-25T06:23:37;13.10;99.90
74869;DHT22;63419;42.262;12.210;2023-04-25T06:26:04;13.10;99.90
74869;DHT22;63419;42.262;12.210;2023-04-25T06:28:32;13.10;99.90
74869;DHT22;63419;42.262;12.210;2023-04-25T06:30:59;13.30;99.90
74869;DHT22;63419;42.262;12.210;2023-04-25T06:33:26;13.60;99.90
74869;DHT22;63419;42.262;12.210;2023-04-25T06:35:53;13.70;99.90
74869;DHT22;63419;42.262;12.210;2023-04-25T06:38:20;13.90;99.90
74869;DHT22;63419;42.262;12.210;2023-04-25T06:40:47;14.00;99.90
74869;DHT22;63419;42.262;12.210;2023-04-25T06:43:14;13.90;99.90
74869;DHT22;63419;42.262;12.210;2023-04-25T06:45:41;13.60;99.90
74869;DHT22;63419;42.262;12.210;2023-04-25T06:48:10;14.00;99.90
74869;DHT22;63419;42.262;12.210;2023-04-25T06:50:37;13.90;99.90
74869;DHT22;63419;42.262;12.210;2023-04-25T06:53:04;14.00;99.90
74869;DHT22;63419;42.262;12.210;2023-04-25T06:55:31;13.90;99.90
74869;DHT22;63419;42.262;12.210;2023-04-25T06:57:58;13.90;99.90
74869;DHT22;63419;42.262;12.210;2023-04-25T07:00:25;13.90;99.90
74869;DHT22;63419;42.262;12.210;2023-04-25T07:02:52;13.80;99.90
74869;DHT22;63419;42.262;12.210;2023-04-25T07:05:19;13.60;99.90
74869;DHT22;63419;42.262;12.210;2023-04-25T07:07:46;13.70;99.90
74869;DHT22;63419;42.262;12.210;2023-04-25T07:10:13;14.00;99.90
74869;DHT22;63419;42.262;12.210;2023-04-25T07:12:40;14.10;99.90
74869;DHT22;63419;42.262;12.210;2023-04-25T07:15:07;14.00;99.90
74869;DHT22;63419;42.262;12.210;2023-04-25T07:17:36;13.90;99.90
74869;DHT22;63419;42.262;12.210;2023-04-25T07:20:04;13.90;99.90
74869;DHT22;63419;42.262;12.210;2023-04-25T07:22:32;14.00;99.90
74869;DHT22;63419;42.262;12.210;2023-04-25T07:24:59;14.10;99.90
74869;DHT22;63419;42.262;12.210;2023-04-25T07:27:27;14.50;99.90
74869;DHT22;63419;42.262;12.210;2023-04-25T07:29:54;14.70;99.90
74869;DHT22;63419;42.262;12.210;2023-04-25T07:32:21;14.80;99.90
74869;DHT22;63419;42.262;12.210;2023-04-25T07:34:48;14.10;99.90
74869;DHT22;63419;42.262;12.210;2023-04-25T07:37:15;13.70;99.90
74869;DHT22;63419;42.262;12.210;2023-04-25T07:39:42;13.80;99.90
74869;DHT22;63419;42.262;12.210;2023-04-25T07:42:09;13.90;99.90
74869;DHT22;63419;42.262;12.210;2023-04-25T07:44:36;13.90;99.90
74869;DHT22;63419;42.262;12.210;2023-04-25T07:47:09;14.40;99.90
74869;DHT22;63419;42.262;12.210;2023-04-25T07:49:37;14.70;99.90
74869;DHT22;63419;42.262;12.210;2023-04-25T07:52:05;14.20;99.90
74869;DHT22;63419;42.262;12.210;2023-04-25T07:54:35;14.40;99.90
74869;DHT22;63419;42.262;12.210;2023-04-25T07:57:02;14.50;99.90
74869;DHT22;63419;42.262;12.210;2023-04-25T07:59:29;14.00;99.90
74869;DHT22;63419;42.262;12.210;2023-04-25T08:01:56;14.70;99.90
74869;DHT22;63419;42.262;12.210;2023-04-25T08:04:24;14.80;99.90
74869;DHT22;63419;42.262;12.210;2023-04-25T08:06:53;15.00;99.90
74869;DHT22;63419;42.262;12.210;2023-04-25T08:09:23;15.60;99.90
74869;DHT22;63419;42.262;12.210;2023-04-25T08:11:50;16.00;99.90
74869;DHT22;63419;42.262;12.210;2023-04-25T08:14:16;15.70;99.90
74869;DHT22;63419;42.262;12.210;2023-04-25T08:16:44;14.60;99.90
74869;DHT22;63419;42.262;12.210;2023-04-25T08:19:11;14.90;99.90
74869;DHT22;63419;42.262;12.210;2023-04-25T08:21:38;14.20;99.90
74869;DHT22;63419;42.262;12.210;2023-04-25T08:24:05;14.30;99.90
74869;DHT22;63419;42.262;12.210;2023-04-25T08:26:32;14.50;99.90
74869;DHT22;63419;42.262;12.210;2023-04-25T08:29:00;14.10;99.90
74869;DHT22;63419;42.262;12.210;2023-04-25T08:31:27;14.30;99.90
74869;DHT22;63419;42.262;12.210;2023-04-25T08:33:54;14.30;99.90
74869;DHT22;63419;42.262;12.210;2023-04-25T08:36:22;14.10;99.90
74869;DHT22;63419;42.262;12.210;2023-04-25T08:39:04;14.50;99.90
74869;DHT22;63419;42.262;12.210;2023-04-25T08:41:32;15.10;99.90
74869;DHT22;63419;42.262;12.210;2023-04-25T08:43:59;14.70;99.90
74869;DHT22;63419;42.262;12.210;2023-04-25T08:46:28;14.80;99.90
74869;DHT22;63419;42.262;12.210;2023-04-25T08:49:02;15.30;99.90
74869;DHT22;63419;42.262;12.210;2023-04-25T08:51:33;15.60;99.90
74869;DHT22;63419;42.262;12.210;2023-04-25T08:54:10;16.00;99.90
74869;DHT22;63419;42.262;12.210;2023-04-25T08:57:01;15.90;99.90
74869;DHT22;63419;42.262;12.210;2023-04-25T08:59:30;15.50;99.90
74869;DHT22;63419;42.262;12.210;2023-04-25T09:01:57;15.60;99.90
74869;DHT22;63419;42.262;12.210;2023-04-25T09:04:24;15.90;99.90
74869;DHT22;63419;42.262;12.210;2023-04-25T09:06:52;15.80;99.90
74869;DHT22;63419;42.262;12.210;2023-04-25T09:09:19;15.90;99.90
74869;DHT22;63419;42.262;12.210;2023-04-25T09:11:46;15.80;99.90
74869;DHT22;63419;42.262;12.210;2023-04-25T09:14:20;15.80;99.90
74869;DHT22;63419;42.262;12.210;2023-04-25T09:19:29;16.40;99.90
74869;DHT22;63419;42.262;12.210;2023-04-25T09:22:06;15.80;99.90
74869;DHT22;63419;42.262;12.210;2023-04-25T09:24:42;15.90;99.90
74869;DHT22;63419;42.262;12.210;2023-04-25T09:27:12;16.80;99.90
74869;DHT22;63419;42.262;12.210;2023-04-25T09:29:40;16.80;99.90
74869;DHT22;63419;42.262;12.210;2023-04-25T09:34:46;15.00;99.90
74869;DHT22;63419;42.262;12.210;2023-04-25T09:37:29;16.10;99.90
74869;DHT22;63419;42.262;12.210;2023-04-25T09:39:57;15.70;99.90
74869;DHT22;63419;42.262;12.210;2023-04-25T09:42:32;15.60;99.90
74869;DHT22;63419;42.262;12.210;2023-04-25T09:45:02;16.00;99.90
74869;DHT22;63419;42.262;12.210;2023-04-25T09:47:30;16.30;99.90
74869;DHT22;63419;42.262;12.210;2023-04-25T09:49:57;16.20;99.90
74869;DHT22;63419;42.262;12.210;2023-04-25T09:52:25;16.50;99.90
74869;DHT22;63419;42.262;12.210;2023-04-25T09:54:52;16.00;99.90
74869;DHT22;63419;42.262;12.210;2023-04-25T09:57:22;17.30;99.90
74869;DHT22;63419;42.262;12.210;2023-04-25T09:59:54;17.80;99.90
74869;DHT22;63419;42.262;12.210;2023-04-25T10:02:24;17.70;99.90
74869;DHT22;63419;42.262;12.210;2023-04-25T10:04:54;18.10;99.90
74869;DHT22;63419;42.262;12.210;2023-04-25T10:07:24;18.40;99.90
74869;DHT22;63419;42.262;12.210;2023-04-25T10:09:58;19.00;99.90
74869;DHT22;63419;42.262;12.210;2023-04-25T10:12:30;19.60;99.90
74869;DHT22;63419;42.262;12.210;2023-04-25T10:14:59;21.20;99.90
74869;DHT22;63419;42.262;12.210;2023-04-25T10:17:27;19.80;99.90
74869;DHT22;63419;42.262;12.210;2023-04-25T10:19:57;20.00;99.90
74869;DHT22;63419;42.262;12.210;2023-04-25T10:22:36;19.00;99.90
74869;DHT22;63419;42.262;12.210;2023-04-25T10:25:05;20.20;99.90
74869;DHT22;63419;42.262;12.210;2023-04-25T10:27:34;20.60;99.90
74869;DHT22;63419;42.262;12.210;2023-04-25T10:30:13;17.90;99.90
74869;DHT22;63419;42.262;12.210;2023-04-25T10:32:42;18.70;99.90
74869;DHT22;63419;42.262;12.210;2023-04-25T10:35:30;18.80;99.90
74869;DHT22;63419;42.262;12.210;2023-04-25T10:38:08;18.40;99.90
74869;DHT22;63419;42.262;12.210;2023-04-25T10:40:36;17.60;99.90
74869;DHT22;63419;42.262;12.210;2023-04-25T10:46:01;19.10;99.90
74869;DHT22;63419;42.262;12.210;2023-04-25T10:48:31;19.70;99.90
74869;DHT22;63419;42.262;12.210;2023-04-25T10:51:08;19.40;99.90
74869;DHT22;63419;42.262;12.210;2023-04-25T10:53:35;19.50;99.90
74869;DHT22;63419;42.262;12.210;2023-04-25T10:58:48;20.00;99.90
74869;DHT22;63419;42.262;12.210;2023-04-25T11:01:21;18.50;99.90
74869;DHT22;63419;42.262;12.210;2023-04-25T11:03:57;18.30;99.90
74869;DHT22;63419;42.262;12.210;2023-04-25T11:09:24;19.20;99.90
74869;DHT22;63419;42.262;12.210;2023-04-25T11:11:58;19.50;99.90
74869;DHT22;63419;42.262;12.210;2023-04-25T11:14:27;18.20;99.90
74869;DHT22;63419;42.262;12.210;2023-04-25T11:16:54;17.50;99.90
74869;DHT22;63419;42.262;12.210;2023-04-25T11:19:27;17.90;99.90
74869;DHT22;63419;42.262;12.210;2023-04-25T11:21:55;17.70;99.90
74869;DHT22;63419;42.262;12.210;2023-04-25T11:24:31;17.20;99.90
74869;DHT22;63419;42.262;12.210;2023-04-25T11:26:59;17.60;99.90
74869;DHT22;63419;42.262;12.210;2023-04-25T11:29:27;17.30;99.90
74869;DHT22;63419;42.262;12.210;2023-04-25T11:31:54;16.40;99.90
74869;DHT22;63419;42.262;12.210;2023-04-25T11:34:25;16.30;99.90
74869;DHT22;63419;42.262;12.210;2023-04-25T11:36:53;16.60;99.90
74869;DHT22;63419;42.262;12.210;2023-04-25T11:39:20;16.50;99.90
74869;DHT22;63419;42.262;12.210;2023-04-25T11:41:48;16.60;99.90
74869;DHT22;63419;42.262;12.210;2023-04-25T11:44:18;16.40;99.90
74869;DHT22;63419;42.262;12.210;2023-04-25T11:46:46;16.90;99.90
74869;DHT22;63419;42.262;12.210;2023-04-25T11:49:14;17.20;99.90
74869;DHT22;63419;42.262;12.210;2023-04-25T11:51:43;16.90;99.90
74869;DHT22;63419;42.262;12.210;2023-04-25T11:54:11;16.90;99.90
74869;DHT22;63419;42.262;12.210;2023-04-25T11:56:43;17.20;99.90
74869;DHT22;63419;42.262;12.210;2023-04-25T11:59:10;18.10;99.90
74869;DHT22;63419;42.262;12.210;2023-04-25T12:01:47;17.50;99.90
74869;DHT22;63419;42.262;12.210;2023-04-25T12:04:17;17.20;99.90
74869;DHT22;63419;42.262;12.210;2023-04-25T12:06:46;17.30;99.90
74869;DHT22;63419;42.262;12.210;2023-04-25T12:09:19;18.20;99.90
74869;DHT22;63419;42.262;12.210;2023-04-25T12:11:52;17.90;99.90
74869;DHT22;63419;42.262;12.210;2023-04-25T12:14:27;17.90;99.90
74869;DHT22;63419;42.262;12.210;2023-04-25T12:16:58;17.90;99.90
74869;DHT22;63419;42.262;12.210;2023-04-25T12:19:30;17.90;99.90
74869;DHT22;63419;42.262;12.210;2023-04-25T12:22:00;18.00;99.90
74869;DHT22;63419;42.262;12.210;2023-04-25T12:24:27;19.10;99.90
74869;DHT22;63419;42.262;12.210;2023-04-25T12:27:03;18.70;99.90
74869;DHT22;63419;42.262;12.210;2023-04-25T12:29:32;17.50;99.90
74869;DHT22;63419;42.262;12.210;2023-04-25T12:32:15;18.20;99.90
74869;DHT22;63419;42.262;12.210;2023-04-25T12:34:42;17.90;99.90
74869;DHT22;63419;42.262;12.210;2023-04-25T12:37:09;19.10;99.90
74869;DHT22;63419;42.262;12.210;2023-04-25T12:39:37;19.20;99.90
74869;DHT22;63419;42.262;12.210;2023-04-25T12:42:04;17.90;99.90
74869;DHT22;63419;42.262;12.210;2023-04-25T12:44:34;18.40;99.90
74869;DHT22;63419;42.262;12.210;2023-04-25T12:47:01;18.70;99.90
74869;DHT22;63419;42.262;12.210;2023-04-25T12:49:30;18.50;99.90
74869;DHT22;63419;42.262;12.210;2023-04-25T12:51:57;18.00;99.90
74869;DHT22;63419;42.262;12.210;2023-04-25T12:54:24;17.80;99.90
74869;DHT22;63419;42.262;12.210;2023-04-25T12:56:52;17.70;99.90
74869;DHT22;63419;42.262;12.210;2023-04-25T12:59:19;18.40;99.90
74869;DHT22;63419;42.262;12.210;2023-04-25T13:01:47;18.00;99.90
74869;DHT22;63419;42.262;12.210;2023-04-25T13:04:14;18.30;99.90
74869;DHT22;63419;42.262;12.210;2023-04-25T13:06:43;18.80;99.90
74869;DHT22;63419;42.262;12.210;2023-04-25T13:09:10;19.10;99.90
74869;DHT22;63419;42.262;12.210;2023-04-25T13:11:39;18.70;99.90
74869;DHT22;63419;42.262;12.210;2023-04-25T13:14:07;18.20;99.90
74869;DHT22;63419;42.262;12.210;2023-04-25T13:16:34;19.20;99.90
74869;DHT22;63419;42.262;12.210;2023-04-25T13:19:01;18.30;99.90
74869;DHT22;63419;42.262;12.210;2023-04-25T13:21:29;18.10;99.90
74869;DHT22;63419;42.262;12.210;2023-04-25T13:23:57;18.20;99.90
74869;DHT22;63419;42.262;12.210;2023-04-25T13:26:25;18.20;99.90
74869;DHT22;63419;42.262;12.210;2023-04-25T13:28:52;18.40;99.90
74869;DHT22;63419;42.262;12.210;2023-04-25T13:31:19;18.70;99.90
74869;DHT22;63419;42.262;12.210;2023-04-25T13:33:46;18.60;99.90
74869;DHT22;63419;42.262;12.210;2023-04-25T13:36:14;18.90;99.90
74869;DHT22;63419;42.262;12.210;2023-04-25T13:38:41;18.30;99.90
74869;DHT22;63419;42.262;12.210;2023-04-25T13:41:10;18.20;99.90
74869;DHT22;63419;42.262;12.210;2023-04-25T13:43:42;18.60;99.90
74869;DHT22;63419;42.262;12.210;2023-04-25T13:46:09;18.70;99.90
74869;DHT22;63419;42.262;12.210;2023-04-25T13:48:56;18.40;99.90
74869;DHT22;63419;42.262;12.210;2023-04-25T13:51:35;18.60;99.90
74869;DHT22;63419;42.262;12.210;2023-04-25T13:54:02;18.70;99.90
74869;DHT22;63419;42.262;12.210;2023-04-25T13:56:29;20.10;99.90
74869;DHT22;63419;42.262;12.210;2023-04-25T13:58:57;19.80;99.90
74869;DHT22;63419;42.262;12.210;2023-04-25T14:01:23;19.60;99.90
74869;DHT22;63419;42.262;12.210;2023-04-25T14:03:50;19.70;99.90
74869;DHT22;63419;42.262;12.210;2023-04-25T14:06:18;19.30;99.90
74869;DHT22;63419;42.262;12.210;2023-04-25T14:08:53;18.50;99.90
74869;DHT22;63419;42.262;12.210;2023-04-25T14:11:20;18.50;99.90
74869;DHT22;63419;42.262;12.210;2023-04-25T14:13:47;19.00;99.90
74869;DHT22;63419;42.262;12.210;2023-04-25T14:16:16;18.70;99.90
74869;DHT22;63419;42.262;12.210;2023-04-25T14:18:43;18.10;99.90
74869;DHT22;63419;42.262;12.210;2023-04-25T14:21:10;18.30;99.90
74869;DHT22;63419;42.262;12.210;2023-04-25T14:23:37;18.10;99.90
74869;DHT22;63419;42.262;12.210;2023-04-25T14:26:04;18.10;99.90
74869;DHT22;63419;42.262;12.210;2023-04-25T14:28:32;17.60;99.90
74869;DHT22;63419;42.262;12.210;2023-04-25T14:30:58;17.30;99.90
74869;DHT22;63419;42.262;12.210;2023-04-25T14:33:25;17.50;99.90
74869;DHT22;63419;42.262;12.210;2023-04-25T14:35:52;18.50;99.90
74869;DHT22;63419;42.262;12.210;2023-04-25T14:38:19;19.10;99.90
74869;DHT22;63419;42.262;12.210;2023-04-25T14:40:50;18.50;99.90
74869;DHT22;63419;42.262;12.210;2023-04-25T14:43:17;19.00;99.90
74869;DHT22;63419;42.262;12.210;2023-04-25T14:45:44;19.30;99.90
74869;DHT22;63419;42.262;12.210;2023-04-25T14:48:11;18.40;99.90
74869;DHT22;63419;42.262;12.210;2023-04-25T14:50:38;17.10;99.90
74869;DHT22;63419;42.262;12.210;2023-04-25T14:53:05;17.30;99.90
74869;DHT22;63419;42.262;12.210;2023-04-25T14:55:32;17.90;99.90
74869;DHT22;63419;42.262;12.210;2023-04-25T14:57:59;18.30;99.90
74869;DHT22;63419;42.262;12.210;2023-04-25T15:00:26;17.50;99.90
74869;DHT22;63419;42.262;12.210;2023-04-25T15:02:53;17.40;99.90
74869;DHT22;63419;42.262;12.210;2023-04-25T15:05:20;17.50;99.90
74869;DHT22;63419;42.262;12.210;2023-04-25T15:07:47;17.40;99.90
74869;DHT22;63419;42.262;12.210;2023-04-25T15:10:14;17.70;99.90
74869;DHT22;63419;42.262;12.210;2023-04-25T15:12:43;18.10;99.90
74869;DHT22;63419;42.262;12.210;2023-04-25T15:15:13;18.40;99.90
74869;DHT22;63419;42.262;12.210;2023-04-25T15:17:51;18.20;99.90
74869;DHT22;63419;42.262;12.210;2023-04-25T15:20:18;18.10;99.90
74869;DHT22;63419;42.262;12.210;2023-04-25T15:22:45;17.50;99.90
74869;DHT22;63419;42.262;12.210;2023-04-25T15:25:12;16.80;99.90
74869;DHT22;63419;42.262;12.210;2023-04-25T15:27:39;16.60;99.90
74869;DHT22;63419;42.262;12.210;2023-04-25T15:30:16;16.70;99.90
74869;DHT22;63419;42.262;12.210;2023-04-25T15:32:45;16.80;99.90
74869;DHT22;63419;42.262;12.210;2023-04-25T15:35:13;17.20;99.90
74869;DHT22;63419;42.262;12.210;2023-04-25T15:37:41;17.50;99.90